createdAt,value
2022-10-18T00:01:22.671Z,52.1
2022-10-18T00:06:25.141Z,51.9
2022-10-18T00:11:24.631Z,52
2022-10-18T00:16:24.716Z,52.1
2022-10-18T00:21:24.733Z,52.2
2022-10-18T00:26:27.457Z,52.1
2022-10-18T00:31:29.629Z,52.3
2022-10-18T00:36:29.162Z,52.3
2022-10-18T00:41:28.668Z,52.3
2022-10-18T00:46:31.371Z,52
2022-10-18T00:51:33.322Z,51.8
2022-10-18T00:56:32.581Z,51.6
2022-10-18T01:01:35.419Z,52.2
2022-10-18T01:06:37.542Z,51.9
2022-10-18T01:11:36.706Z,52.2
2022-10-18T01:16:36.421Z,52
2022-10-18T01:21:39.466Z,52.1
2022-10-18T01:26:41.516Z,52.1
2022-10-18T01:31:40.735Z,51.8
2022-10-18T01:36:40.554Z,51.8
2022-10-18T01:41:40.400Z,51.8
2022-10-18T01:46:40.277Z,51.7
2022-10-18T01:51:40.142Z,51.9
2022-10-18T01:56:42.488Z,52.1
2022-10-18T02:01:42.042Z,52
2022-10-18T02:06:41.636Z,51.8
2022-10-18T02:11:41.421Z,51.7
2022-10-18T02:16:43.855Z,51.6
2022-10-18T02:21:43.191Z,51.6
2022-10-18T02:26:43.141Z,51.7
2022-10-18T02:31:42.883Z,52.1
2022-10-18T02:36:42.568Z,51.5
2022-10-18T02:41:42.498Z,51.7
2022-10-18T02:46:45.074Z,51.7
2022-10-18T02:51:44.559Z,51.8
2022-10-18T02:56:44.445Z,51.7
2022-10-18T03:01:44.203Z,51.7
2022-10-18T03:06:44.061Z,51.6
2022-10-18T03:11:43.845Z,51.7
2022-10-18T03:16:43.691Z,51.8
2022-10-18T03:21:44.457Z,51.7
2022-10-18T03:26:43.771Z,51.7
2022-10-18T03:31:43.811Z,51.9
2022-10-18T03:36:43.589Z,51.6
2022-10-18T03:41:46.341Z,51.9
2022-10-18T03:46:45.827Z,51.8
2022-10-18T03:51:48.476Z,51.8
2022-10-18T03:56:50.518Z,51.5
2022-10-18T04:01:50.173Z,51.8
2022-10-18T04:06:50.059Z,51.9
2022-10-18T04:11:50.265Z,51.8
2022-10-18T04:16:49.906Z,51.7
2022-10-18T04:21:52.631Z,51.9
2022-10-18T04:26:52.274Z,51.7
2022-10-18T04:31:51.938Z,51.9
2022-10-18T04:36:51.960Z,51.7
2022-10-18T04:41:54.516Z,52
2022-10-18T04:46:53.876Z,51.6
2022-10-18T04:51:53.573Z,51.8
2022-10-18T04:56:56.316Z,51.8
2022-10-18T05:01:58.678Z,51.7
2022-10-18T05:06:58.001Z,51.4
2022-10-18T05:11:59.853Z,50.8
2022-10-18T05:17:02.179Z,50.4
2022-10-18T05:22:01.698Z,50.4
2022-10-18T05:27:01.229Z,49.7
2022-10-18T05:32:03.764Z,49.3
2022-10-18T05:37:03.250Z,49
2022-10-18T05:42:05.848Z,49
2022-10-18T05:47:08.215Z,49.4
2022-10-18T05:52:07.455Z,49.4
2022-10-18T05:57:07.418Z,49.3
2022-10-18T06:02:07.282Z,49.4
2022-10-18T06:07:10.269Z,49.4
2022-10-18T06:12:12.506Z,49.2
2022-10-18T06:17:11.736Z,48.9
2022-10-18T06:22:11.532Z,48.9
2022-10-18T06:27:11.483Z,48.8
2022-10-18T06:32:11.455Z,48.6
2022-10-18T06:37:14.218Z,48.6
2022-10-18T06:42:13.667Z,48.5
2022-10-18T06:47:16.154Z,48.4
2022-10-18T06:52:15.104Z,48.3
2022-10-18T06:57:15.076Z,48.4
2022-10-18T07:02:14.820Z,48.4
2022-10-18T07:07:14.515Z,48.3
2022-10-18T07:12:17.029Z,48.5
2022-10-18T07:17:16.651Z,48.3
2022-10-18T07:22:16.413Z,48.5
2022-10-18T07:27:19.103Z,48.8
2022-10-18T07:32:21.298Z,48.6
2022-10-18T07:37:25.432Z,48.8
2022-10-18T07:42:25.088Z,48.9
2022-10-18T07:47:24.422Z,48.9
2022-10-18T07:52:24.145Z,49.1
2022-10-18T07:57:26.876Z,49.3
2022-10-18T08:02:26.368Z,49.4
2022-10-18T08:07:26.133Z,49.3
2022-10-18T08:12:26.102Z,49.4
2022-10-18T08:17:25.563Z,49.3
2022-10-18T08:22:25.363Z,49.3
2022-10-18T08:27:28.098Z,49.5
2022-10-18T08:32:30.463Z,49.6
2022-10-18T08:37:29.545Z,49.7
2022-10-18T08:42:29.092Z,49.5
2022-10-18T08:47:28.854Z,49.5
2022-10-18T08:52:31.281Z,49.6
2022-10-18T08:57:33.733Z,49.6
2022-10-18T09:02:35.664Z,48.8
2022-10-18T09:07:34.808Z,49.8
2022-10-18T09:12:37.515Z,49.9
2022-10-18T09:17:39.396Z,49.9
2022-10-18T09:22:41.477Z,50
2022-10-18T09:27:43.342Z,50
2022-10-18T09:32:42.639Z,50.1
2022-10-18T09:37:42.498Z,50
2022-10-18T09:42:42.579Z,50.4
2022-10-18T09:47:45.275Z,50.6
2022-10-18T09:52:47.497Z,50.6
2022-10-18T09:57:49.749Z,50.6
2022-10-18T10:02:49.136Z,48.8
2022-10-18T10:07:49.089Z,48.1
2022-10-18T10:12:49.236Z,49.7
2022-10-18T10:17:51.958Z,50.4
2022-10-18T10:22:51.386Z,48.7
2022-10-18T10:27:51.152Z,49.2
2022-10-18T10:32:51.118Z,50.3
2022-10-18T10:37:53.836Z,50.6
2022-10-18T10:42:59.908Z,49.9
2022-10-18T10:47:58.069Z,50.4
2022-10-18T10:53:00.130Z,48.9
2022-10-18T10:58:02.245Z,49.1
2022-10-18T11:03:06.074Z,49.5
2022-10-18T11:08:04.227Z,48.7
2022-10-18T11:13:03.608Z,49.7
2022-10-18T11:18:03.481Z,49.3
2022-10-18T11:23:09.770Z,49.3
2022-10-18T11:28:11.340Z,50
2022-10-18T11:33:10.756Z,48.2
2022-10-18T11:38:10.677Z,49.9
2022-10-18T11:43:09.581Z,50.4
2022-10-18T11:48:09.806Z,50.7
2022-10-18T11:53:09.751Z,50.9
2022-10-18T11:58:12.615Z,50.7
2022-10-18T12:03:11.999Z,50.6
2022-10-18T12:08:10.633Z,51.1
2022-10-18T12:13:10.717Z,50.6
2022-10-18T12:18:10.454Z,50.7
2022-10-18T12:23:10.253Z,51.2
2022-10-18T12:28:10.368Z,51.1
2022-10-18T12:38:12.905Z,50.3
2022-10-18T12:43:15.088Z,50.7
2022-10-18T12:48:14.592Z,50.2
2022-10-18T12:53:17.231Z,50.3
2022-10-18T12:58:19.420Z,50.2
2022-10-18T13:03:18.899Z,50.1
2022-10-18T13:08:18.929Z,49.9
2022-10-18T13:13:36.182Z,49.8
2022-10-18T13:18:21.793Z,49.8
2022-10-18T13:23:21.294Z,49.4
2022-10-18T13:28:24.194Z,49.5
2022-10-18T13:33:25.772Z,49.4
2022-10-18T13:38:27.969Z,49.3
2022-10-18T13:43:27.472Z,49.6
2022-10-18T13:48:27.224Z,49.5
2022-10-18T13:53:27.141Z,49.4
2022-10-18T13:58:29.679Z,49.2
2022-10-18T14:03:55.406Z,48.5
2022-10-18T14:08:31.774Z,49.5
2022-10-18T14:13:31.139Z,49.4
2022-10-18T14:18:31.718Z,49
2022-10-18T14:23:30.659Z,49.2
2022-10-18T14:28:42.010Z,49.2
2022-10-18T14:33:30.488Z,49.2
2022-10-18T14:38:32.873Z,49.1
2022-10-18T14:43:35.098Z,48.4
2022-10-18T14:48:34.871Z,49.8
2022-10-18T14:53:36.987Z,50.2
2022-10-18T14:58:36.712Z,50.4
2022-10-18T15:03:36.731Z,50.7
2022-10-18T15:08:39.594Z,50.5
2022-10-18T15:13:39.124Z,50.9
2022-10-18T15:18:41.743Z,51.4
2022-10-18T15:23:44.063Z,51.6
2022-10-18T15:28:43.535Z,51.4
2022-10-18T15:33:42.954Z,51.7
2022-10-18T15:38:45.100Z,52
2022-10-18T15:43:42.880Z,52
2022-10-18T15:48:42.752Z,52.3
2022-10-18T15:53:45.445Z,52.2
2022-10-18T15:58:47.404Z,52.4
2022-10-18T16:03:46.593Z,52.4
2022-10-18T16:08:46.228Z,52.3
2022-10-18T16:13:48.831Z,52.3
2022-10-18T16:18:48.312Z,52.2
2022-10-18T16:23:48.115Z,52.1
2022-10-18T16:28:50.819Z,51.8
2022-10-18T16:33:50.137Z,52
2022-10-18T16:38:52.772Z,51.7
2022-10-18T16:43:52.130Z,51.9
2022-10-18T16:48:52.141Z,52.6
2022-10-18T16:53:54.574Z,52.7
2022-10-18T16:58:54.063Z,52.5
2022-10-18T17:03:53.740Z,52.6
2022-10-18T17:08:53.301Z,52.8
2022-10-18T17:13:54.006Z,52.7
2022-10-18T17:18:53.937Z,52.8
2022-10-18T17:23:53.757Z,52.9
2022-10-18T17:28:53.644Z,52.7
2022-10-18T17:33:53.579Z,52.5
2022-10-18T17:38:53.539Z,52.2
2022-10-18T17:43:53.243Z,52.5
2022-10-18T17:48:52.981Z,52.3
2022-10-18T17:53:53.060Z,52.7
2022-10-18T17:58:52.924Z,52.3
2022-10-18T18:03:55.411Z,52.4
2022-10-18T18:08:55.903Z,52.4
2022-10-18T18:13:55.629Z,52.4
2022-10-18T18:18:55.432Z,52.3
2022-10-18T18:23:58.095Z,52.4
2022-10-18T18:28:58.048Z,52.2
2022-10-18T18:33:58.026Z,52.2
2022-10-18T18:39:00.699Z,52.3
2022-10-18T18:44:00.135Z,52.4
2022-10-18T18:48:59.779Z,52.2
2022-10-18T18:53:58.070Z,52.3
2022-10-18T18:58:58.064Z,52.1
2022-10-18T19:03:58.251Z,52.3
2022-10-18T19:09:00.868Z,52.2
2022-10-18T19:14:00.378Z,52
2022-10-18T19:18:59.845Z,51.9
2022-10-18T19:23:58.770Z,51.4
2022-10-18T19:28:58.532Z,51.4
2022-10-18T19:33:59.526Z,51.2
2022-10-18T19:39:01.105Z,50.9
2022-10-18T19:44:00.325Z,50.6
2022-10-18T19:49:00.213Z,50.6
2022-10-18T19:54:02.582Z,50.3
2022-10-18T19:59:04.663Z,50.1
2022-10-18T20:04:03.908Z,50.5
2022-10-18T20:09:03.894Z,50.1
2022-10-18T20:14:03.882Z,50.1
2022-10-18T20:19:07.367Z,49.9
2022-10-18T20:24:08.995Z,50.1
2022-10-18T20:29:11.278Z,49.8
2022-10-18T20:34:10.836Z,49.8
2022-10-18T20:39:13.404Z,49.8
2022-10-18T20:44:12.809Z,49.8
2022-10-18T20:49:12.632Z,49.7
2022-10-18T20:54:12.518Z,49.8
2022-10-18T20:59:15.209Z,49.7
2022-10-18T21:04:14.650Z,49.9
2022-10-18T21:09:14.343Z,50
2022-10-18T21:14:16.771Z,49.9
2022-10-18T21:19:18.812Z,50.3
2022-10-18T21:24:18.043Z,50
2022-10-18T21:29:22.115Z,50.2
2022-10-18T21:34:18.110Z,50.3
2022-10-18T21:39:21.241Z,50.1
2022-10-18T21:44:19.405Z,50.2
2022-10-18T21:49:19.582Z,50
2022-10-18T21:54:19.432Z,50.2
2022-10-18T21:59:19.498Z,50.1
2022-10-18T22:04:23.786Z,50.4
2022-10-18T22:09:23.042Z,49.7
2022-10-18T22:14:25.695Z,50.2
2022-10-18T22:19:25.090Z,50.1
2022-10-18T22:24:27.835Z,50.2
2022-10-18T22:29:27.074Z,50.1
2022-10-18T22:34:27.026Z,50.1
2022-10-18T22:39:27.039Z,50
2022-10-18T22:44:26.922Z,49.7
2022-10-18T22:49:26.786Z,50.2
2022-10-18T22:54:26.898Z,49.9
2022-10-18T22:59:26.985Z,50
2022-10-18T23:04:27.016Z,49.8
2022-10-18T23:09:29.538Z,49.9
2022-10-18T23:14:29.027Z,49.8
2022-10-18T23:19:28.719Z,50.2
2022-10-18T23:24:28.769Z,49.9
2022-10-18T23:29:28.522Z,50
2022-10-18T23:34:31.065Z,50.1
2022-10-18T23:39:32.496Z,50.4
2022-10-18T23:44:31.873Z,50
2022-10-18T23:49:34.450Z,49.9
2022-10-18T23:54:33.877Z,50.2
2022-10-18T23:59:33.634Z,50
